createdAt,value
2019-02-23T00:01:07.425Z,15.73
2019-02-23T00:03:23.799Z,16.53
2019-02-23T00:05:41.213Z,16.03
2019-02-23T00:07:50.372Z,16.10
2019-02-23T00:10:13.785Z,15.70
2019-02-23T00:15:15.348Z,16.30
2019-02-23T00:17:23.774Z,16.33
2019-02-23T00:19:30.090Z,15.93
2019-02-23T00:21:40.939Z,16.77
2019-02-23T00:23:54.438Z,18.10
2019-02-23T00:26:04.908Z,16.20
2019-02-23T00:28:15.077Z,17.87
2019-02-23T00:30:36.009Z,16.87
2019-02-23T00:32:51.323Z,18.60
2019-02-23T00:35:35.740Z,17.60
2019-02-23T00:38:05.778Z,18.27
2019-02-23T00:40:28.663Z,16.33
2019-02-23T00:42:37.247Z,15.97
2019-02-23T00:45:00.783Z,17.03
2019-02-23T00:47:16.153Z,16.40
2019-02-23T00:49:35.790Z,17.27
2019-02-23T00:51:51.790Z,17.00
2019-02-23T00:54:01.450Z,16.73
2019-02-23T00:56:50.114Z,16.17
2019-02-23T00:59:08.088Z,15.50
2019-02-23T01:01:24.399Z,16.90
2019-02-23T01:06:03.978Z,18.00
2019-02-23T01:08:21.908Z,17.03
2019-02-23T01:11:02.250Z,16.40
2019-02-23T01:13:07.680Z,17.03
2019-02-23T01:15:31.895Z,18.37
2019-02-23T01:20:40.251Z,18.00
2019-02-23T01:22:59.635Z,16.53
2019-02-23T01:25:09.160Z,16.47
2019-02-23T01:27:26.198Z,16.77
2019-02-23T01:29:36.589Z,19.03
2019-02-23T01:32:09.822Z,16.53
2019-02-23T01:34:46.178Z,17.97
2019-02-23T01:36:56.635Z,17.07
2019-02-23T01:39:15.491Z,17.80
2019-02-23T01:41:32.830Z,18.30
2019-02-23T01:44:09.805Z,17.30
2019-02-23T01:46:30.670Z,17.37
2019-02-23T01:49:02.037Z,20.53
2019-02-23T01:51:08.119Z,18.80
2019-02-23T01:53:27.305Z,18.40
2019-02-23T01:55:39.903Z,16.63
2019-02-23T01:57:52.100Z,18.03
2019-02-23T02:00:07.591Z,18.83
2019-02-23T02:02:31.182Z,19.53
2019-02-23T02:04:42.941Z,20.27
2019-02-23T02:06:52.446Z,18.83
2019-02-23T02:08:59.576Z,20.00
2019-02-23T02:11:13.975Z,17.67
2019-02-23T02:13:31.263Z,17.40
2019-02-23T02:15:41.870Z,17.93
2019-02-23T02:17:54.159Z,18.23
2019-02-23T02:20:19.853Z,17.60
2019-02-23T02:22:29.351Z,19.90
2019-02-23T02:24:56.304Z,17.37
2019-02-23T02:27:33.163Z,18.43
2019-02-23T02:29:41.255Z,17.77
2019-02-23T02:32:01.858Z,18.23
2019-02-23T02:34:21.109Z,18.00
2019-02-23T02:36:30.290Z,19.50
2019-02-23T02:38:53.197Z,20.57
2019-02-23T02:41:06.412Z,19.47
2019-02-23T02:43:24.188Z,21.50
2019-02-23T02:45:41.172Z,21.73
2019-02-23T02:48:07.542Z,22.23
2019-02-23T02:50:23.821Z,21.20
2019-02-23T02:52:31.936Z,19.53
2019-02-23T02:54:48.711Z,20.30
2019-02-23T02:57:05.556Z,22.13
2019-02-23T02:59:16.662Z,22.27
2019-02-23T03:01:40.977Z,21.13
2019-02-23T03:03:56.160Z,19.23
2019-02-23T03:06:05.558Z,24.17
2019-02-23T03:08:16.577Z,22.97
2019-02-23T03:10:58.374Z,24.07
2019-02-23T03:13:13.212Z,23.20
2019-02-23T03:15:48.858Z,22.13
2019-02-23T03:18:07.179Z,23.67
2019-02-23T03:20:36.898Z,22.70
2019-02-23T03:23:00.182Z,24.00
2019-02-23T03:25:39.818Z,24.37
2019-02-23T03:27:51.691Z,23.27
2019-02-23T03:30:08.007Z,24.27
2019-02-23T03:32:28.867Z,24.37
2019-02-23T03:35:00.679Z,24.50
2019-02-23T03:37:19.647Z,24.07
2019-02-23T03:39:49.255Z,24.13
2019-02-23T03:42:23.486Z,25.73
2019-02-23T03:44:40.659Z,24.13
2019-02-23T03:47:12.145Z,25.33
2019-02-23T03:49:26.138Z,25.37
2019-02-23T03:51:40.134Z,24.93
2019-02-23T03:53:53.654Z,24.90
2019-02-23T03:56:01.216Z,24.23
2019-02-23T03:58:15.354Z,28.57
2019-02-23T04:00:24.753Z,24.60
2019-02-23T04:02:35.452Z,24.27
2019-02-23T04:05:11.231Z,23.40
2019-02-23T04:07:21.950Z,27.10
2019-02-23T04:09:56.297Z,25.73
2019-02-23T04:12:08.239Z,24.20
2019-02-23T04:14:16.972Z,27.57
2019-02-23T04:16:23.703Z,27.63
2019-02-23T04:18:45.512Z,26.17
2019-02-23T04:21:02.061Z,27.97
2019-02-23T04:23:23.223Z,26.13
2019-02-23T04:25:29.595Z,28.00
2019-02-23T04:27:35.126Z,27.40
2019-02-23T04:29:40.688Z,28.33
2019-02-23T04:31:54.464Z,28.03
2019-02-23T04:36:48.530Z,28.27
2019-02-23T04:39:04.365Z,28.40
2019-02-23T04:41:09.552Z,27.97
2019-02-23T04:43:33.663Z,29.03
2019-02-23T04:45:48.553Z,27.73
2019-02-23T04:48:16.902Z,29.67
2019-02-23T04:50:48.789Z,27.17
2019-02-23T04:53:04.879Z,29.03
2019-02-23T04:55:13.624Z,27.37
2019-02-23T04:57:19.394Z,29.73
2019-02-23T04:59:26.533Z,27.43
2019-02-23T05:01:44.969Z,28.90
2019-02-23T05:03:51.761Z,28.77
2019-02-23T05:05:56.822Z,25.90
2019-02-23T05:08:04.781Z,26.20
2019-02-23T05:10:10.099Z,28.63
2019-02-23T05:12:15.621Z,26.37
2019-02-23T05:14:24.088Z,27.77
2019-02-23T05:16:41.998Z,28.60
2019-02-23T05:18:50.785Z,27.13
2019-02-23T05:21:02.674Z,27.17
2019-02-23T05:23:23.564Z,29.47
2019-02-23T05:25:31.954Z,26.80
2019-02-23T05:27:36.912Z,29.17
2019-02-23T05:29:43.530Z,28.67
2019-02-23T05:32:01.488Z,28.03
2019-02-23T05:34:21.941Z,27.80
2019-02-23T05:36:35.749Z,27.03
2019-02-23T05:38:54.445Z,26.63
2019-02-23T05:41:12.082Z,30.60
2019-02-23T05:43:31.404Z,28.40
2019-02-23T05:45:49.741Z,28.53
2019-02-23T05:48:09.948Z,27.97
2019-02-23T05:50:17.015Z,29.53
2019-02-23T05:52:42.143Z,29.20
2019-02-23T05:54:57.007Z,27.97
2019-02-23T05:57:09.240Z,29.33
2019-02-23T05:59:27.378Z,29.80
2019-02-23T06:01:38.715Z,30.73
2019-02-23T06:03:50.107Z,29.00
2019-02-23T06:06:09.984Z,32.40
2019-02-23T06:08:21.209Z,28.63
2019-02-23T06:10:33.665Z,30.67
2019-02-23T06:12:56.656Z,29.73
2019-02-23T06:15:07.435Z,29.73
2019-02-23T06:17:28.624Z,29.37
2019-02-23T06:20:22.251Z,33.57
2019-02-23T06:22:42.183Z,33.60
2019-02-23T06:25:13.784Z,31.53
2019-02-23T06:27:19.538Z,31.13
2019-02-23T06:29:33.412Z,29.07
2019-02-23T06:31:54.860Z,31.30
2019-02-23T06:34:16.119Z,29.47
2019-02-23T06:36:30.286Z,30.43
2019-02-23T06:38:39.184Z,29.60
2019-02-23T06:40:49.549Z,32.83
2019-02-23T06:42:57.744Z,29.60
2019-02-23T06:45:05.405Z,29.10
2019-02-23T06:47:24.683Z,30.47
2019-02-23T06:49:40.825Z,28.77
2019-02-23T06:51:50.681Z,30.30
2019-02-23T06:54:23.348Z,30.63
2019-02-23T06:56:31.718Z,32.43
2019-02-23T06:58:45.323Z,29.47
2019-02-23T07:00:55.917Z,30.10
2019-02-23T07:03:12.418Z,27.77
2019-02-23T07:05:48.473Z,29.73
2019-02-23T07:08:32.259Z,29.30
2019-02-23T07:10:59.180Z,31.30
2019-02-23T07:13:07.257Z,28.83
2019-02-23T07:15:18.295Z,28.47
2019-02-23T07:17:33.631Z,29.00
2019-02-23T07:22:27.684Z,33.30
2019-02-23T07:24:33.393Z,28.40
2019-02-23T07:26:39.099Z,29.23
2019-02-23T07:28:50.227Z,30.40
2019-02-23T07:31:02.043Z,29.90
2019-02-23T07:33:29.575Z,27.00
2019-02-23T07:35:37.452Z,30.13
2019-02-23T07:37:54.512Z,31.20
2019-02-23T07:40:10.326Z,28.43
2019-02-23T07:42:19.232Z,29.20
2019-02-23T07:44:30.080Z,27.20
2019-02-23T07:46:44.796Z,28.10
2019-02-23T07:48:57.277Z,26.50
2019-02-23T07:51:25.855Z,27.47
2019-02-23T07:53:39.364Z,30.00
2019-02-23T07:55:58.562Z,30.73
2019-02-23T07:58:11.579Z,28.23
2019-02-23T08:00:42.673Z,29.27
2019-02-23T08:02:55.953Z,29.77
2019-02-23T08:05:15.345Z,28.70
2019-02-23T08:07:36.299Z,27.80
2019-02-23T08:09:49.772Z,29.87
2019-02-23T08:12:07.169Z,31.23
2019-02-23T08:14:48.958Z,28.37
2019-02-23T08:16:48.702Z,27.17
2019-02-23T08:19:06.576Z,27.47
2019-02-23T08:21:49.184Z,28.93
2019-02-23T08:23:37.141Z,25.23
2019-02-23T08:26:05.334Z,28.17
2019-02-23T08:28:21.468Z,27.87
2019-02-23T08:30:36.282Z,27.23
2019-02-23T08:32:42.719Z,26.27
2019-02-23T08:34:50.846Z,25.50
2019-02-23T08:37:04.773Z,28.10
2019-02-23T08:39:15.300Z,29.27
2019-02-23T08:41:21.736Z,26.87
2019-02-23T08:43:32.031Z,27.97
2019-02-23T08:45:51.281Z,26.47
2019-02-23T08:48:13.148Z,24.67
2019-02-23T08:50:22.971Z,27.27
2019-02-23T08:52:33.921Z,27.57
2019-02-23T08:54:51.255Z,26.70
2019-02-23T08:57:17.341Z,26.10
2019-02-23T08:59:39.414Z,25.00
2019-02-23T09:01:50.684Z,27.80
2019-02-23T09:04:11.381Z,26.03
2019-02-23T09:06:26.435Z,24.00
2019-02-23T09:08:42.027Z,27.53
2019-02-23T09:11:16.538Z,27.73
2019-02-23T09:13:28.839Z,28.10
2019-02-23T09:15:42.217Z,23.57
2019-02-23T09:17:48.947Z,25.13
2019-02-23T09:20:02.474Z,26.53
2019-02-23T09:22:12.752Z,23.80
2019-02-23T09:24:29.740Z,26.10
2019-02-23T09:26:48.312Z,24.20
2019-02-23T09:28:59.255Z,25.17
2019-02-23T09:31:16.697Z,24.27
2019-02-23T09:33:35.767Z,26.57
2019-02-23T09:35:59.830Z,25.70
2019-02-23T09:38:15.905Z,27.50
2019-02-23T09:40:31.157Z,25.50
2019-02-23T09:42:41.699Z,25.20
2019-02-23T09:44:55.691Z,23.87
2019-02-23T09:47:19.307Z,25.33
2019-02-23T09:49:35.385Z,24.87
2019-02-23T09:51:43.061Z,27.87
2019-02-23T09:53:57.168Z,25.70
2019-02-23T09:56:11.326Z,25.50
2019-02-23T09:58:27.819Z,27.10
2019-02-23T10:00:38.232Z,23.67
2019-02-23T10:03:01.178Z,22.80
2019-02-23T10:05:07.024Z,23.57
2019-02-23T10:07:18.177Z,22.83
2019-02-23T10:09:23.908Z,25.50
2019-02-23T10:11:29.870Z,24.57
2019-02-23T10:13:36.253Z,24.60
2019-02-23T10:15:50.122Z,25.07
2019-02-23T10:18:01.051Z,23.90
2019-02-23T10:20:19.388Z,23.13
2019-02-23T10:22:46.208Z,24.63
2019-02-23T10:25:03.029Z,23.23
2019-02-23T10:27:29.296Z,24.77
2019-02-23T10:29:45.401Z,25.07
2019-02-23T10:31:52.429Z,21.97
2019-02-23T10:34:05.521Z,25.07
2019-02-23T10:36:25.338Z,25.33
2019-02-23T10:38:45.212Z,23.90
2019-02-23T10:41:03.445Z,24.10
2019-02-23T10:43:11.837Z,23.10
2019-02-23T10:45:25.167Z,25.20
2019-02-23T10:47:43.961Z,23.80
2019-02-23T10:50:05.827Z,23.10
2019-02-23T10:52:16.042Z,22.00
2019-02-23T10:54:33.724Z,22.20
2019-02-23T10:56:52.458Z,21.90
2019-02-23T10:59:25.376Z,23.27
2019-02-23T11:01:57.091Z,23.10
2019-02-23T11:04:13.548Z,23.33
2019-02-23T11:06:24.330Z,20.70
2019-02-23T11:08:35.669Z,22.17
2019-02-23T11:10:55.953Z,23.17
2019-02-23T11:13:09.907Z,23.10
2019-02-23T11:15:50.133Z,20.30
2019-02-23T11:18:17.353Z,22.47
2019-02-23T11:20:32.857Z,21.87
2019-02-23T11:22:53.345Z,21.10
2019-02-23T11:25:19.187Z,25.43
2019-02-23T11:27:27.257Z,20.97
2019-02-23T11:30:00.476Z,21.67
2019-02-23T11:32:16.367Z,22.70
2019-02-23T11:34:23.883Z,23.73
2019-02-23T11:36:34.152Z,21.17
2019-02-23T11:38:55.862Z,20.70
2019-02-23T11:41:08.654Z,22.00
2019-02-23T11:43:22.500Z,22.03
2019-02-23T11:45:35.540Z,22.77
2019-02-23T11:47:42.952Z,23.00
2019-02-23T11:49:58.373Z,22.83
2019-02-23T11:52:17.405Z,20.67
2019-02-23T11:54:23.436Z,19.50
2019-02-23T11:56:29.812Z,19.87
2019-02-23T11:58:49.702Z,21.57
2019-02-23T12:01:16.083Z,21.37
2019-02-23T12:03:41.007Z,21.50
2019-02-23T12:06:12.706Z,20.60
2019-02-23T12:08:29.582Z,20.57
2019-02-23T12:10:42.871Z,20.93
2019-02-23T12:13:01.237Z,19.53
2019-02-23T12:15:13.653Z,21.90
2019-02-23T12:17:31.091Z,21.13
2019-02-23T12:19:46.907Z,19.37
2019-02-23T12:24:25.354Z,19.30
2019-02-23T12:26:42.992Z,19.40
2019-02-23T12:28:49.963Z,20.43
2019-02-23T12:31:09.243Z,20.13
2019-02-23T12:33:33.179Z,19.57
2019-02-23T12:35:41.607Z,18.83
2019-02-23T12:37:56.221Z,19.10
2019-02-23T12:40:21.476Z,18.93
2019-02-23T12:42:35.506Z,19.17
2019-02-23T12:45:13.519Z,20.20
2019-02-23T12:47:41.312Z,20.70
2019-02-23T12:50:01.721Z,19.67
2019-02-23T12:52:13.342Z,20.40
2019-02-23T12:54:29.385Z,19.73
2019-02-23T12:56:46.881Z,19.50
2019-02-23T12:59:37.553Z,19.17
2019-02-23T13:04:22.532Z,19.07
2019-02-23T13:06:37.560Z,15.90
2019-02-23T13:09:34.209Z,16.57
2019-02-23T13:11:43.843Z,14.27
2019-02-23T13:14:21.343Z,14.10
2019-02-23T13:16:48.545Z,13.07
2019-02-23T13:20:13.973Z,14.37
2019-02-23T13:23:21.539Z,14.00
2019-02-23T13:25:57.364Z,12.80
2019-02-23T13:28:52.658Z,12.83
2019-02-23T13:31:52.679Z,17.20
2019-02-23T13:34:48.708Z,13.83
2019-02-23T13:37:52.525Z,14.20
2019-02-23T13:40:52.039Z,14.67
2019-02-23T13:43:33.217Z,12.53
2019-02-23T13:46:10.598Z,13.50
2019-02-23T13:48:54.442Z,12.53
2019-02-23T13:51:50.606Z,14.93
2019-02-23T13:54:45.291Z,13.07
2019-02-23T13:57:49.557Z,14.00
2019-02-23T14:03:31.902Z,11.90
2019-02-23T14:06:07.309Z,12.50
2019-02-23T14:08:55.223Z,11.47
2019-02-23T14:11:40.063Z,11.47
2019-02-23T14:14:14.839Z,11.80
2019-02-23T14:16:53.383Z,12.57
2019-02-23T14:19:56.314Z,13.70
2019-02-23T14:22:59.792Z,10.83
2019-02-23T14:25:59.770Z,12.10
2019-02-23T14:28:58.594Z,11.30
2019-02-23T14:32:07.496Z,14.57
2019-02-23T14:34:50.575Z,11.00
2019-02-23T14:37:32.999Z,11.93
2019-02-23T14:40:16.647Z,10.80
2019-02-23T14:43:17.320Z,10.60
2019-02-23T14:45:57.055Z,10.93
2019-02-23T14:48:41.906Z,10.83
2019-02-23T14:51:27.214Z,9.97
2019-02-23T14:54:28.681Z,10.90
2019-02-23T14:57:38.515Z,11.87
2019-02-23T15:03:37.616Z,12.13
2019-02-23T15:06:27.480Z,13.27
2019-02-23T15:08:57.968Z,12.23
2019-02-23T15:11:40.877Z,11.47
2019-02-23T15:14:29.440Z,11.10
2019-02-23T15:17:16.691Z,11.47
2019-02-23T15:20:20.721Z,12.93
2019-02-23T15:23:26.843Z,11.23
2019-02-23T15:26:14.066Z,11.40
2019-02-23T15:28:55.524Z,10.97
2019-02-23T15:32:01.698Z,11.40
2019-02-23T15:35:14.666Z,11.00
2019-02-23T15:37:52.406Z,14.23
2019-02-23T15:40:43.936Z,10.63
2019-02-23T15:43:52.802Z,10.90
2019-02-23T15:47:02.861Z,12.17
2019-02-23T15:49:46.788Z,12.73
2019-02-23T15:52:14.650Z,10.67
2019-02-23T15:54:38.785Z,13.00
2019-02-23T15:57:06.733Z,11.27
2019-02-23T15:59:17.080Z,12.20
2019-02-23T16:01:34.889Z,11.87
2019-02-23T16:03:54.161Z,11.27
2019-02-23T16:06:12.427Z,12.47
2019-02-23T16:08:30.006Z,11.47
2019-02-23T16:10:46.648Z,15.50
2019-02-23T16:13:12.320Z,10.90
2019-02-23T16:15:36.630Z,11.23
2019-02-23T16:17:51.615Z,10.17
2019-02-23T16:20:08.434Z,12.87
2019-02-23T16:22:34.669Z,12.37
2019-02-23T16:24:45.710Z,11.07
2019-02-23T16:26:51.201Z,12.20
2019-02-23T16:29:09.614Z,10.93
2019-02-23T16:31:32.043Z,11.50
2019-02-23T16:33:57.563Z,13.20
2019-02-23T16:36:05.092Z,10.93
2019-02-23T16:38:15.445Z,12.77
2019-02-23T16:40:41.233Z,11.77
2019-02-23T16:43:11.302Z,10.00
2019-02-23T16:45:45.409Z,11.20
2019-02-23T16:48:05.266Z,10.83
2019-02-23T16:50:29.405Z,11.03
2019-02-23T16:52:37.621Z,13.40
2019-02-23T16:55:01.001Z,12.83
2019-02-23T16:57:20.791Z,12.27
2019-02-23T16:59:31.906Z,11.27
2019-02-23T17:02:03.339Z,13.40
2019-02-23T17:04:24.172Z,16.27
2019-02-23T17:06:33.792Z,16.00
2019-02-23T17:08:49.630Z,13.13
2019-02-23T17:11:01.341Z,14.23
2019-02-23T17:13:17.812Z,13.67
2019-02-23T17:15:36.367Z,11.93
2019-02-23T17:17:48.207Z,16.47
2019-02-23T17:20:08.996Z,14.57
2019-02-23T17:22:17.867Z,13.00
2019-02-23T17:24:26.086Z,12.00
2019-02-23T17:26:40.132Z,12.13
2019-02-23T17:28:51.747Z,15.23
2019-02-23T17:31:23.795Z,16.33
2019-02-23T17:34:02.535Z,16.13
2019-02-23T17:36:21.019Z,14.83
2019-02-23T17:38:41.250Z,13.53
2019-02-23T17:40:56.788Z,12.90
2019-02-23T17:43:08.960Z,13.27
2019-02-23T17:45:33.482Z,13.13
2019-02-23T17:48:07.776Z,12.90
2019-02-23T17:50:31.464Z,12.33
2019-02-23T17:53:01.659Z,14.73
2019-02-23T17:55:18.561Z,12.63
2019-02-23T17:57:36.252Z,13.03
2019-02-23T17:59:59.631Z,12.60
2019-02-23T18:04:58.665Z,13.77
2019-02-23T18:07:33.255Z,15.70
2019-02-23T18:09:41.549Z,13.33
2019-02-23T18:12:17.262Z,15.53
2019-02-23T18:14:15.763Z,16.97
2019-02-23T18:16:32.656Z,14.90
2019-02-23T18:18:55.436Z,12.67
2019-02-23T18:23:38.524Z,14.30
2019-02-23T18:25:58.211Z,15.50
2019-02-23T18:28:25.326Z,17.53
2019-02-23T18:30:44.034Z,19.03
2019-02-23T18:33:25.280Z,15.67
2019-02-23T18:35:51.419Z,15.00
2019-02-23T18:38:09.064Z,15.27
2019-02-23T18:40:17.771Z,19.73
2019-02-23T18:42:22.431Z,17.03
2019-02-23T18:44:29.812Z,16.30
2019-02-23T18:49:20.613Z,15.63
2019-02-23T18:51:27.364Z,17.67
2019-02-23T18:53:50.672Z,19.50
2019-02-23T18:56:10.317Z,18.83
2019-02-23T18:58:36.188Z,18.50
2019-02-23T19:00:41.886Z,18.67
2019-02-23T19:03:17.636Z,17.57
2019-02-23T19:05:54.510Z,19.00
2019-02-23T19:08:08.215Z,18.77
2019-02-23T19:10:40.112Z,19.77
2019-02-23T19:12:47.486Z,17.27
2019-02-23T19:17:35.762Z,18.57
2019-02-23T19:19:41.845Z,19.87
2019-02-23T19:22:01.153Z,22.37
2019-02-23T19:24:23.564Z,19.83
2019-02-23T19:26:38.171Z,20.30
2019-02-23T19:28:48.417Z,19.80
2019-02-23T19:31:16.834Z,19.00
2019-02-23T19:33:39.404Z,18.83
2019-02-23T19:36:02.039Z,22.97
2019-02-23T19:38:32.223Z,20.07
2019-02-23T19:42:53.932Z,19.50
2019-02-23T19:46:48.695Z,18.40
2019-02-23T19:47:49.941Z,18.00
2019-02-23T19:50:12.110Z,17.60
2019-02-23T19:52:35.513Z,19.50
2019-02-23T20:00:00.148Z,16.80
2019-02-23T20:02:19.480Z,19.20
2019-02-23T20:04:47.365Z,17.33
2019-02-23T20:07:09.748Z,17.03
2019-02-23T20:09:48.523Z,18.67
2019-02-23T20:12:23.705Z,23.80
2019-02-23T20:14:21.076Z,18.63
2019-02-23T20:19:09.334Z,19.27
2019-02-23T20:21:26.015Z,18.90
2019-02-23T20:23:44.665Z,17.63
2019-02-23T20:26:02.198Z,22.80
2019-02-23T20:28:18.879Z,21.33
2019-02-23T20:30:37.702Z,17.77
2019-02-23T20:32:56.844Z,17.90
2019-02-23T20:35:16.129Z,20.47
2019-02-23T20:37:32.182Z,19.90
2019-02-23T20:39:57.259Z,19.30
2019-02-23T20:42:17.856Z,19.07
2019-02-23T20:47:11.855Z,20.80
2019-02-23T20:52:36.492Z,17.97
2019-02-23T21:08:35.129Z,21.67
2019-02-23T21:10:55.741Z,16.97
2019-02-23T21:13:33.673Z,18.43
2019-02-23T21:18:28.648Z,19.23
2019-02-23T21:21:59.176Z,16.90
2019-02-23T21:24:42.169Z,20.47
2019-02-23T21:26:46.256Z,17.03
2019-02-23T21:29:07.862Z,18.50
2019-02-23T21:31:29.525Z,16.33
2019-02-23T21:36:38.649Z,16.93
2019-02-23T21:39:02.729Z,16.67
2019-02-23T21:41:21.824Z,16.97
2019-02-23T21:43:42.568Z,17.17
2019-02-23T21:48:43.564Z,17.50
2019-02-23T21:51:05.489Z,16.77
2019-02-23T21:53:23.225Z,18.80
2019-02-23T21:55:42.010Z,18.00
2019-02-23T21:57:59.876Z,15.73
2019-02-23T22:00:16.167Z,17.40
2019-02-23T22:02:39.006Z,17.60
2019-02-23T22:08:30.580Z,16.23
2019-02-23T22:10:50.538Z,17.77
2019-02-23T22:12:56.572Z,16.57
2019-02-23T22:15:02.520Z,16.40
2019-02-23T22:20:01.266Z,15.97
2019-02-23T22:22:21.873Z,17.20
2019-02-23T22:25:01.099Z,17.57
2019-02-23T22:27:09.452Z,16.63
2019-02-23T22:32:20.700Z,18.47
2019-02-23T22:34:43.616Z,15.43
2019-02-23T22:37:01.215Z,15.77
2019-02-23T22:42:14.130Z,17.87
2019-02-23T22:44:32.107Z,15.77
2019-02-23T22:46:51.408Z,15.57
2019-02-23T22:49:26.262Z,19.33
2019-02-23T22:51:36.062Z,16.60
2019-02-23T22:56:26.408Z,16.70
2019-02-23T22:58:44.795Z,17.67
2019-02-23T23:03:48.050Z,17.10
2019-02-23T23:06:45.279Z,16.17
2019-02-23T23:08:25.032Z,16.80
2019-02-23T23:10:58.549Z,18.43
2019-02-23T23:13:25.247Z,17.33
2019-02-23T23:19:08.336Z,18.33
2019-02-23T23:20:49.547Z,15.37
2019-02-23T23:22:43.869Z,17.67
2019-02-23T23:25:02.637Z,15.50
2019-02-23T23:32:43.802Z,15.10
2019-02-23T23:35:00.318Z,18.53
2019-02-23T23:37:22.058Z,17.33
2019-02-23T23:40:16.578Z,17.63
2019-02-23T23:42:08.328Z,19.57
2019-02-23T23:44:25.019Z,16.67
2019-02-23T23:47:25.413Z,19.67
2019-02-23T23:49:10.963Z,17.57
2019-02-23T23:51:39.297Z,16.57
2019-02-23T23:54:01.239Z,15.10
2019-02-23T23:56:08.926Z,16.07
2019-02-23T23:58:35.296Z,16.87
